Time;durP1;ratioP1;P1;durP2;ratioP2;P2;SDS_P1;SDS_P2;PMS_P1;PMS_P2;Temp;Humidity;BMP_temperature;BMP_pressure;BME280_temperature;BME280_humidity;BME280_pressure;Samples;Min_cycle;Max_cycle;Signal;HPM_P1;HPM_P2
2021/08/10 00:01:06;;;;;;;3.98;1.93;;;;;;;20.97;53.32;98660.36;129440;1096;114305;-81
2021/08/10 00:03:32;;;;;;;3.35;1.73;;;;;;;20.93;53.65;98664.22;129476;1096;114105;-81
2021/08/10 00:05:58;;;;;;;3.28;1.90;;;;;;;20.90;53.16;98671.21;129471;1096;114125;-81
2021/08/10 00:08:25;;;;;;;5.18;2.10;;;;;;;20.87;53.22;98660.22;129579;1096;22540;-81
2021/08/10 00:10:51;;;;;;;2.83;2.08;;;;;;;20.84;53.22;98665.28;129443;1096;113548;-81
2021/08/10 00:13:20;;;;;;;5.90;2.08;;;;;;;20.82;53.31;98672.28;129569;1096;114167;-81
2021/08/10 00:15:47;;;;;;;1.93;1.80;;;;;;;20.79;53.36;98667.56;129436;1097;114027;-81
2021/08/10 00:18:13;;;;;;;2.40;1.83;;;;;;;20.77;53.28;98667.13;129486;1096;114237;-81
2021/08/10 00:20:39;;;;;;;5.53;2.08;;;;;;;20.74;53.56;98662.39;129459;1095;114009;-81
2021/08/10 00:23:05;;;;;;;4.28;1.90;;;;;;;20.71;53.65;98658.47;129549;1096;22538;-81
2021/08/10 00:25:32;;;;;;;2.70;1.75;;;;;;;20.69;53.70;98666.24;129454;1096;113739;-81
2021/08/10 00:28:01;;;;;;;5.88;2.00;;;;;;;20.67;53.73;98675.97;129442;1096;114018;-81
2021/08/10 00:30:28;;;;;;;3.63;1.90;;;;;;;20.63;53.93;98675.13;129407;1095;114084;-81
2021/08/10 00:32:55;;;;;;;4.68;1.90;;;;;;;20.62;54.14;98670.81;129514;1096;114049;-81
2021/08/10 00:35:21;;;;;;;3.48;1.98;;;;;;;20.59;54.62;98686.83;129515;1097;22520;-81
2021/08/10 00:37:47;;;;;;;2.48;2.28;;;;;;;20.55;55.00;98675.05;129481;1096;113780;-81
2021/08/10 00:40:14;;;;;;;3.83;2.13;;;;;;;20.54;55.13;98675.39;129446;1096;114033;-81
2021/08/10 00:42:40;;;;;;;5.25;2.58;;;;;;;20.50;55.18;98667.13;129458;1096;114495;-81
2021/08/10 00:45:07;;;;;;;6.43;2.38;;;;;;;20.49;55.24;98671.03;129443;1096;114074;-81
2021/08/10 00:47:33;;;;;;;5.28;1.83;;;;;;;20.47;55.25;98672.52;129476;1095;114059;-81
2021/08/10 00:49:59;;;;;;;4.20;1.98;;;;;;;20.44;55.13;98673.27;129600;1096;22581;-81
2021/08/10 00:52:26;;;;;;;3.20;2.10;;;;;;;20.41;55.02;98677.52;129501;1096;114090;-81
2021/08/10 00:54:52;;;;;;;3.58;1.88;;;;;;;20.38;54.79;98669.26;129462;1096;113926;-81
2021/08/10 00:57:19;;;;;;;3.05;2.08;;;;;;;20.35;54.79;98682.50;129506;1096;114011;-81
2021/08/10 00:59:45;;;;;;;3.00;2.00;;;;;;;20.34;54.71;98682.88;129454;1095;114211;-81
2021/08/10 01:02:11;;;;;;;2.80;1.95;;;;;;;20.32;54.77;98687.94;129560;1095;22609;-81
2021/08/10 01:05:36;;;;;;;;;;;;;;;;;;;;;
2021/08/10 01:12:45;;;;;;;2.95;1.80;;;;;;;20.21;54.70;98689.70;129866;1096;23455;-80
2021/08/10 01:26:59;;;;;;;2.20;1.80;;;;;;;19.98;55.64;98687.75;129482;1096;113192;-82
2021/08/10 01:30:31;;;;;;;3.93;1.95;;;;;;;19.94;55.74;98710.71;129649;1096;115131;-81
2021/08/10 01:33:58;;;;;;;2.83;2.03;;;;;;;19.90;55.74;98715.32;129728;1096;114137;-81
2021/08/10 01:37:26;;;;;;;2.93;1.90;;;;;;;19.87;55.62;98708.63;129734;1095;114339;-81
2021/08/10 01:44:38;;;;;;;3.08;1.98;;;;;;;19.83;55.63;98716.76;129150;1096;113905;-82
2021/08/10 01:48:04;;;;;;;3.20;1.80;;;;;;;19.81;55.93;98701.90;129727;1095;113928;-82
2021/08/10 01:51:48;;;;;;;;;;;;;;;;;;;;;
2021/08/10 01:55:06;;;;;;;3.45;2.10;;;;;;;19.77;55.51;98699.09;129319;1096;114090;-82
2021/08/10 01:58:32;;;;;;;3.05;2.03;;;;;;;19.76;55.67;98692.03;129743;1096;113916;-81
2021/08/10 02:02:01;;;;;;;4.50;1.95;;;;;;;19.75;56.19;98697.87;129742;1096;113932;-82
2021/08/10 02:05:28;;;;;;;4.35;2.05;;;;;;;19.71;55.62;98689.60;129596;1096;112859;-82
2021/08/10 02:08:55;;;;;;;3.33;1.98;;;;;;;19.68;56.09;98684.86;129554;1096;113749;-80
2021/08/10 02:12:36;;;;;;;3.43;2.00;;;;;;;19.65;56.21;98688.33;129560;1096;114460;-83
2021/08/10 02:15:57;;;;;;;3.65;1.60;;;;;;;19.61;55.92;98684.72;129230;1095;114427;-82
2021/08/10 02:19:30;;;;;;;4.28;2.00;;;;;;;19.61;55.49;98690.17;129562;1095;113998;-83
2021/08/10 02:26:29;;;;;;;2.95;1.88;;;;;;;19.59;55.73;98678.81;129529;1095;113912;-82
2021/08/10 02:29:57;;;;;;;2.10;1.90;;;;;;;19.58;55.91;98678.02;129560;1096;115330;-82
2021/08/10 02:33:25;;;;;;;3.13;1.88;;;;;;;19.57;56.00;98679.19;129665;1096;22528;-81
2021/08/10 02:37:00;;;;;;;3.20;1.90;;;;;;;19.55;55.70;98680.69;129549;1096;112813;-81
2021/08/10 02:47:16;;;;;;;3.68;1.88;;;;;;;19.52;56.12;98678.67;129561;1096;113858;-83
2021/08/10 02:50:43;;;;;;;2.08;1.85;;;;;;;19.50;56.01;98678.25;129529;1096;113901;-82
2021/08/10 02:54:10;;;;;;;2.48;1.93;;;;;;;19.45;56.27;98679.31;129551;1096;114463;-82
2021/08/10 03:01:12;;;;;;;3.60;2.00;;;;;;;19.37;56.62;98678.41;129596;1096;114604;-82
2021/08/10 03:04:38;;;;;;;3.00;1.83;;;;;;;19.32;56.70;98675.95;129453;1096;114028;-82
2021/08/10 03:07:59;;;;;;;;;;;;;;;;;;;;;
2021/08/10 03:22:17;;;;;;;3.93;2.20;;;;;;;19.30;58.17;98680.20;129386;1096;114479;-81
2021/08/10 03:25:45;;;;;;;3.35;2.00;;;;;;;19.32;57.94;98686.87;129451;1096;114132;-81
2021/08/10 03:29:13;;;;;;;3.75;1.80;;;;;;;19.34;57.91;98678.34;129629;1096;113892;-81
2021/08/10 03:36:08;;;;;;;4.58;2.30;;;;;;;19.35;57.72;98671.72;129659;1095;113758;-82
2021/08/10 03:39:26;;;;;;;;;;;;;;;;;;;;;
2021/08/10 03:43:02;;;;;;;3.60;1.83;;;;;;;19.30;57.80;98680.99;129525;1095;114035;-81
2021/08/10 03:46:38;;;;;;;3.38;2.00;;;;;;;19.27;57.79;98684.44;129269;1096;113877;-81
2021/08/10 03:50:09;;;;;;;3.25;1.90;;;;;;;19.24;57.55;98681.63;129370;1096;114336;-80
2021/08/10 03:53:37;;;;;;;2.90;2.10;;;;;;;19.21;57.73;98687.80;129235;1094;113963;-81
2021/08/10 03:57:13;;;;;;;;;;;;;;;;;;;;;
2021/08/10 04:00:30;;;;;;;2.30;1.80;;;;;;;19.17;57.94;98674.08;129510;1096;113486;-81
2021/08/10 04:07:32;;;;;;;3.20;1.90;;;;;;;19.15;58.40;98681.06;129268;1097;114381;-82
2021/08/10 04:18:07;;;;;;;3.05;2.08;;;;;;;19.14;58.17;98666.63;129685;1095;22566;-81
2021/08/10 04:21:32;;;;;;;;;;;;;;;;;;;;;
2021/08/10 04:25:02;;;;;;;2.75;2.00;;;;;;;19.15;58.76;98672.88;129578;1095;114457;-81
2021/08/10 04:28:23;;;;;;;;;;;;;;;;;;;;;
2021/08/10 04:31:50;;;;;;;2.20;1.70;;;;;;;19.24;58.98;98682.41;129551;1095;113951;-81
2021/08/10 04:35:19;;;;;;;6.00;1.95;;;;;;;19.34;59.21;98687.31;129339;1096;114494;-82
2021/08/10 04:38:46;;;;;;;3.90;2.08;;;;;;;19.43;59.12;98683.57;129558;1096;114348;-82
2021/08/10 04:42:16;;;;;;;5.13;2.33;;;;;;;19.46;59.16;98688.32;129568;1095;113695;-81
2021/08/10 04:49:10;;;;;;;4.75;2.23;;;;;;;19.50;59.20;98691.91;129593;1095;114200;-80
2021/08/10 04:52:36;;;;;;;3.95;2.10;;;;;;;19.52;59.48;98695.05;129589;1096;114441;-81
2021/08/10 04:56:03;;;;;;;2.65;2.08;;;;;;;19.55;60.03;98688.88;129555;1096;115451;-80
2021/08/10 04:59:29;;;;;;;3.53;2.00;;;;;;;19.59;60.01;98670.61;129581;1096;113877;-82
2021/08/10 05:03:02;;;;;;;4.15;2.18;;;;;;;19.63;60.00;98685.16;129541;1096;113608;-81
2021/08/10 05:10:04;;;;;;;6.25;2.00;;;;;;;19.72;60.30;98693.13;129386;1096;114084;-81
2021/08/10 05:13:30;;;;;;;6.73;2.30;;;;;;;19.79;60.55;98685.84;129588;1096;114387;-83
2021/08/10 05:17:03;;;;;;;5.53;1.83;;;;;;;19.92;60.80;98685.67;129687;1096;113874;-82
2021/08/10 05:20:30;;;;;;;7.58;2.25;;;;;;;20.06;61.12;98678.52;129449;1096;113914;-81
2021/08/10 05:23:58;;;;;;;6.75;2.10;;;;;;;20.20;61.23;98680.71;129800;1096;22582;-82
2021/08/10 05:27:24;;;;;;;3.13;1.98;;;;;;;20.33;60.99;98678.56;129717;1096;113607;-81
2021/08/10 05:34:11;;;;;;;;;;;;;;;;;;;;;
2021/08/10 05:37:48;;;;;;;3.23;2.07;;;;;;;20.71;59.63;98694.04;129640;1095;113932;-81
2021/08/10 05:41:15;;;;;;;4.25;2.10;;;;;;;20.86;59.23;98707.91;129677;1096;114293;-81
2021/08/10 05:44:44;;;;;;;5.53;2.40;;;;;;;20.99;58.90;98701.08;129727;1096;113881;-81
2021/08/10 05:51:40;;;;;;;6.30;2.30;;;;;;;21.22;59.25;98707.25;129209;1096;114022;-81
2021/08/10 05:55:06;;;;;;;3.03;2.00;;;;;;;21.35;58.91;98712.52;129575;1096;114159;-82
2021/08/10 05:58:41;;;;;;;7.23;2.45;;;;;;;21.47;58.85;98718.53;129609;1096;114421;-82
2021/08/10 06:02:09;;;;;;;2.50;2.10;;;;;;;21.63;58.39;98720.28;129308;1096;113940;-82
2021/08/10 06:05:43;;;;;;;2.70;1.83;;;;;;;21.75;58.06;98714.54;129565;1096;113884;-81
2021/08/10 06:09:11;;;;;;;4.08;2.10;;;;;;;21.90;58.05;98715.48;129318;1096;113794;-83
2021/08/10 06:19:32;;;;;;;3.70;2.40;;;;;;;22.36;57.58;98723.36;129558;1096;114672;-83
2021/08/10 06:23:01;;;;;;;6.08;2.70;;;;;;;22.51;57.25;98725.06;129360;1096;113919;-84
2021/08/10 06:26:19;;;;;;;6.45;2.60;;;;;;;22.68;56.79;98729.13;129554;1096;113922;-82
2021/08/10 06:29:46;;;;;;;5.33;2.60;;;;;;;22.82;56.13;98729.21;129676;1096;114322;-83
2021/08/10 06:33:12;;;;;;;4.10;2.20;;;;;;;22.97;55.26;98736.41;129585;1095;113707;-83
2021/08/10 06:36:52;;;;;;;;;;;;;;;;;;;;;
2021/08/10 06:39:53;;;;;;;4.63;2.15;;;;;;;23.12;53.26;98734.53;129152;1096;114089;-84
2021/08/10 06:43:12;;;;;;;;;;;;;;;;;;;;;
2021/08/10 06:46:42;;;;;;;7.25;2.70;;;;;;;23.28;53.48;98735.01;129497;1096;114276;-83
2021/08/10 06:50:10;;;;;;;5.05;2.30;;;;;;;23.41;52.63;98745.66;129624;1095;113907;-84
2021/08/10 06:53:38;;;;;;;5.70;2.40;;;;;;;23.56;52.07;98738.27;129592;1096;113933;-83
2021/08/10 06:57:30;;;;;;;6.00;2.45;;;;;;;23.69;51.81;98748.55;129588;1095;113755;-83
2021/08/10 07:04:14;;;;;;;6.85;2.78;;;;;;;23.93;51.13;98749.82;129038;1096;114440;-82
2021/08/10 07:07:53;;;;;;;4.18;2.38;;;;;;;24.06;51.03;98739.23;129562;1096;113964;-83
2021/08/10 07:11:17;;;;;;;;;;;;;;;;;;;;;
2021/08/10 07:14:38;;;;;;;3.73;2.40;;;;;;;24.36;50.70;98743.57;129342;1096;113873;-82
2021/08/10 07:18:04;;;;;;;4.95;2.40;;;;;;;24.47;50.36;98747.94;129594;1096;113729;-83
2021/08/10 07:21:33;;;;;;;3.53;2.60;;;;;;;24.61;49.99;98738.90;129564;1096;113835;-84
2021/08/10 07:31:55;;;;;;;3.93;2.43;;;;;;;25.04;47.85;98736.09;129581;1095;114697;-81
2021/08/10 07:35:23;;;;;;;5.33;2.45;;;;;;;25.14;47.59;98729.77;129546;1096;113913;-81
2021/08/10 07:38:51;;;;;;;4.43;2.38;;;;;;;25.28;46.50;98731.72;129508;1096;113779;-82
2021/08/10 07:42:19;;;;;;;8.20;2.88;;;;;;;25.40;45.66;98727.73;129341;1096;113923;-82
2021/08/10 07:46:05;;;;;;;3.53;2.50;;;;;;;25.52;44.99;98723.75;129523;1096;114000;-82
2021/08/10 07:49:14;;;;;;;3.45;2.23;;;;;;;25.64;44.74;98720.54;129414;1096;114126;-81
2021/08/10 07:52:52;;;;;;;3.68;2.40;;;;;;;25.75;43.97;98728.77;129537;1096;114545;-83
2021/08/10 08:03:27;;;;;;;6.58;2.38;;;;;;;26.12;43.17;98726.19;129368;1096;22544;-82
2021/08/10 08:06:52;;;;;;;4.90;2.83;;;;;;;26.23;42.69;98723.35;129347;1096;113953;-82
2021/08/10 08:10:20;;;;;;;5.33;2.23;;;;;;;26.37;42.22;98723.26;129517;1096;114297;-82
2021/08/10 08:13:55;;;;;;;3.55;2.03;;;;;;;26.49;42.11;98718.44;129615;1096;113941;-82
2021/08/10 08:17:28;;;;;;;3.15;2.13;;;;;;;26.59;42.28;98723.88;129339;1096;114753;-81
2021/08/10 08:20:56;;;;;;;3.23;2.05;;;;;;;26.73;41.13;98720.21;129330;1096;112677;-81
2021/08/10 08:24:25;;;;;;;4.58;2.33;;;;;;;26.84;40.96;98718.13;129589;1096;112657;-80
2021/08/10 08:41:40;;;;;;;2.95;2.10;;;;;;;27.42;39.55;98707.23;129188;1096;113996;-80
2021/08/10 08:50:42;;;;;;;3.40;2.30;;;;;;;27.71;39.08;98709.64;129688;1096;114018;-82
2021/08/10 08:54:10;;;;;;;5.38;2.45;;;;;;;27.78;38.04;98713.09;129382;1096;113881;-83
2021/08/10 09:01:29;;;;;;;;;;;;;;;;;;;;;
2021/08/10 09:08:15;;;;;;;3.88;2.48;;;;;;;28.01;38.28;98706.06;128410;1100;114093;-82
2021/08/10 09:11:36;;;;;;;;;;;;;;;;;;;;;
2021/08/10 09:15:03;;;;;;;3.75;2.43;;;;;;;28.12;38.12;98707.47;129599;1096;113665;-83
2021/08/10 09:18:30;;;;;;;4.08;2.30;;;;;;;28.22;37.95;98705.75;129421;1096;23044;-84
2021/08/10 09:25:45;;;;;;;3.28;2.55;;;;;;;28.49;37.70;98702.16;129395;1096;114042;-83
2021/08/10 09:29:17;;;;;;;6.20;2.65;;;;;;;28.58;37.74;98705.96;129513;1096;113972;-83
2021/08/10 09:44:46;;;;;;;;;;;;;;;;;;;;;
2021/08/10 09:48:24;;;;;;;4.88;2.60;;;;;;;29.18;36.78;98691.42;129666;1095;115080;-85
2021/08/10 09:52:01;;;;;;;4.88;2.55;;;;;;;29.29;37.04;98694.77;129754;1096;114633;-82
2021/08/10 09:55:35;;;;;;;5.50;3.23;;;;;;;29.49;36.99;98691.97;129724;1096;114002;-82
2021/08/10 09:59:10;;;;;;;4.80;2.55;;;;;;;29.66;36.50;98685.27;129445;1096;113995;-82
2021/08/10 10:13:20;;;;;;;4.15;2.60;;;;;;;30.14;35.23;98683.77;129164;1096;113058;-82
2021/08/10 10:16:58;;;;;;;;;;;;;;;;;;;;;
2021/08/10 10:20:25;;;;;;;;;;;;;;;;;;;;;
2021/08/10 10:23:41;;;;;;;5.08;2.70;;;;;;;30.28;33.71;98691.02;129196;1096;113898;-83
2021/08/10 10:27:10;;;;;;;5.48;2.95;;;;;;;30.40;33.54;98684.75;129503;1096;113739;-82
2021/08/10 10:30:44;;;;;;;4.08;2.90;;;;;;;30.53;33.94;98691.15;129221;1096;114082;-82
2021/08/10 10:34:18;;;;;;;4.33;2.53;;;;;;;30.59;33.14;98680.30;129524;1096;114056;-82
2021/08/10 10:41:13;;;;;;;3.88;2.50;;;;;;;31.10;32.60;98676.98;129554;1096;113898;-81
2021/08/10 10:44:40;;;;;;;3.68;2.58;;;;;;;31.20;31.63;98678.66;129614;1096;113965;-82
2021/08/10 10:48:23;;;;;;;6.08;2.78;;;;;;;31.35;31.76;98673.50;129573;1096;113811;-82
2021/08/10 10:52:04;;;;;;;5.53;2.88;;;;;;;31.60;31.86;98670.77;129565;1096;114072;-81
2021/08/10 10:55:37;;;;;;;3.15;2.38;;;;;;;31.78;31.51;98673.77;129239;1096;114698;-78
2021/08/10 10:59:04;;;;;;;5.88;2.78;;;;;;;31.91;31.75;98668.25;129293;1096;113987;-80
2021/08/10 11:02:30;;;;;;;3.90;2.50;;;;;;;32.07;31.26;98664.55;129655;1096;113947;-80
2021/08/10 11:13:19;;;;;;;;;;;;;;;;;;;;;
2021/08/10 11:16:48;;;;;;;3.03;2.48;;;;;;;32.65;30.69;98660.63;129546;1096;114473;-79
2021/08/10 11:24:00;;;;;;;3.65;2.50;;;;;;;33.37;30.39;98651.27;129671;1095;113795;-80
2021/08/10 11:27:30;;;;;;;3.20;2.25;;;;;;;33.65;29.93;98645.84;129459;1096;114860;-81
2021/08/10 11:31:02;;;;;;;3.85;2.60;;;;;;;33.89;29.28;98641.27;129254;1095;114046;-80
2021/08/10 11:34:32;;;;;;;4.05;2.80;;;;;;;34.17;29.16;98647.72;129595;1095;113537;-79
2021/08/10 11:37:58;;;;;;;4.40;2.90;;;;;;;34.45;28.78;98642.17;129571;1096;114090;-80
2021/08/10 11:45:19;;;;;;;3.95;2.63;;;;;;;34.76;27.63;98633.66;128942;1100;113963;-80
2021/08/10 11:48:37;;;;;;;;;;;;;;;;;;;;;
2021/08/10 11:52:10;;;;;;;5.78;3.00;;;;;;;34.94;27.14;98635.67;129390;1096;114729;-81
2021/08/10 11:55:37;;;;;;;3.93;2.75;;;;;;;35.02;26.14;98630.53;129487;1096;113904;-79
2021/08/10 12:02:33;;;;;;;3.88;2.70;;;;;;;35.12;25.50;98615.28;129629;1095;114443;-78
2021/08/10 12:16:20;;;;;;;4.40;2.88;;;;;;;35.60;26.32;98599.42;129780;1095;114085;-79
2021/08/10 12:26:51;;;;;;;3.88;2.80;;;;;;;36.50;23.89;98592.98;129521;1096;113673;-79
2021/08/10 12:40:43;;;;;;;7.13;3.10;;;;;;;36.43;22.20;98576.48;129718;1096;114575;-78
2021/08/10 12:44:10;;;;;;;5.43;3.03;;;;;;;36.48;22.88;98572.29;129765;1095;113926;-80
2021/08/10 12:47:40;;;;;;;5.00;3.38;;;;;;;36.53;21.44;98571.61;129758;1096;113966;-80
2021/08/10 12:51:07;;;;;;;6.30;3.30;;;;;;;36.44;21.96;98561.23;129306;1096;113947;-79
2021/08/10 12:54:35;;;;;;;4.53;2.70;;;;;;;36.59;22.02;98559.25;129784;1095;114518;-80
2021/08/10 12:58:02;;;;;;;4.93;3.00;;;;;;;36.64;21.15;98552.19;129769;1095;114629;-79
2021/08/10 13:02:04;;;;;;;4.03;2.90;;;;;;;36.90;21.47;98549.56;129775;1096;112832;-81
2021/08/10 13:05:01;;;;;;;4.10;3.10;;;;;;;37.20;21.72;98552.39;129659;1096;114024;-81
2021/08/10 13:15:50;;;;;;;;;;;;;;;;;;;;;
2021/08/10 13:19:19;;;;;;;2.83;2.40;;;;;;;37.94;20.32;98529.73;129777;1096;113898;-81
2021/08/10 13:22:52;;;;;;;5.80;3.08;;;;;;;38.07;20.70;98528.09;129798;1095;113955;-81
2021/08/10 13:26:18;;;;;;;5.20;3.25;;;;;;;38.07;20.55;98522.48;129774;1095;113876;-79
2021/08/10 13:33:19;;;;;;;6.55;2.85;;;;;;;38.34;19.90;98514.88;129877;1096;22535;-80
2021/08/10 13:36:46;;;;;;;4.58;2.85;;;;;;;38.76;20.25;98507.88;129766;1096;113911;-82
2021/08/10 13:47:09;;;;;;;4.83;2.83;;;;;;;39.68;19.09;98503.95;129772;1096;113917;-82
2021/08/10 13:50:36;;;;;;;4.60;3.18;;;;;;;39.95;18.80;98504.58;129763;1096;113901;-80
2021/08/10 13:54:08;;;;;;;4.08;2.90;;;;;;;40.27;19.28;98501.63;129802;1095;113858;-81
2021/08/10 14:04:28;;;;;;;4.58;2.98;;;;;;;41.40;18.04;98503.25;129766;1096;113921;-80
2021/08/10 14:07:55;;;;;;;6.00;3.05;;;;;;;41.45;17.89;98489.09;129494;1096;113897;-79
2021/08/10 14:11:22;;;;;;;4.35;3.00;;;;;;;41.62;17.41;98483.41;129704;1096;114304;-78
2021/08/10 14:14:56;;;;;;;5.23;3.20;;;;;;;41.69;17.19;98479.24;129760;1095;113716;-79
2021/08/10 14:18:24;;;;;;;4.78;2.98;;;;;;;41.63;16.82;98482.11;129505;1096;113882;-80
2021/08/10 14:21:50;;;;;;;5.28;3.28;;;;;;;41.86;16.57;98482.81;129719;1096;114514;-81
2021/08/10 14:25:18;;;;;;;6.33;3.43;;;;;;;41.95;16.13;98478.91;129756;1096;112893;-80
2021/08/10 14:39:20;;;;;;;3.85;2.90;;;;;;;43.05;15.53;98469.39;129776;1096;114812;-81
2021/08/10 14:42:54;;;;;;;6.28;3.20;;;;;;;43.40;14.88;98467.77;129760;1095;113995;-82
2021/08/10 14:46:19;;;;;;;5.08;3.20;;;;;;;43.70;15.06;98464.08;129475;1097;113936;-81
2021/08/10 14:49:49;;;;;;;4.58;3.25;;;;;;;43.98;14.19;98460.89;129773;1094;114174;-80
2021/08/10 14:53:15;;;;;;;8.25;3.60;;;;;;;44.43;14.14;98455.35;129532;1096;113985;-79
2021/08/10 14:56:42;;;;;;;4.30;3.00;;;;;;;44.73;12.58;98455.16;129768;1096;113876;-81
2021/08/10 15:00:09;;;;;;;4.90;3.50;;;;;;;44.72;13.20;98455.67;129763;1096;113837;-81
2021/08/10 15:07:04;;;;;;;4.85;3.70;;;;;;;45.95;12.19;98456.19;129700;1096;114063;-80
2021/08/10 15:10:32;;;;;;;3.78;3.13;;;;;;;46.57;12.34;98453.98;129741;1096;114191;-81
2021/08/10 15:14:15;;;;;;;4.45;3.10;;;;;;;47.33;11.65;98451.03;129768;1096;113945;-82
2021/08/10 15:17:46;;;;;;;7.98;3.65;;;;;;;48.18;10.83;98450.83;129296;1100;114023;-80
2021/08/10 15:21:11;;;;;;;6.80;3.80;;;;;;;48.86;10.63;98449.42;128893;1099;113949;-82
2021/08/10 15:24:38;;;;;;;4.70;3.63;;;;;;;49.41;10.02;98441.53;128886;1096;113989;-82
2021/08/10 15:28:06;;;;;;;6.65;3.70;;;;;;;50.08;9.34;98444.70;129686;1095;114081;-80
2021/08/10 15:31:31;;;;;;;4.90;3.90;;;;;;;50.79;9.61;98445.17;129710;1095;113772;-81
2021/08/10 15:34:57;;;;;;;4.18;3.38;;;;;;;51.55;8.34;98437.91;129767;1096;113065;-80
2021/08/10 15:38:24;;;;;;;7.38;4.25;;;;;;;52.22;8.71;98439.72;129806;1096;113776;-81
2021/08/10 15:41:58;;;;;;;5.93;4.00;;;;;;;52.78;8.02;98439.05;129764;1096;113712;-80
2021/08/10 15:45:26;;;;;;;5.38;4.20;;;;;;;53.43;7.42;98423.87;129397;1096;22551;-80
2021/08/10 15:52:00;;;;;;;;;;;;;;;54.04;6.75;98418.17;129737;1096;113902;-81
2021/08/10 15:55:29;;;;;;;5.13;4.60;;;;;;;54.33;6.20;98418.86;129807;1096;100075;-79
2021/08/10 16:02:23;;;;;;;5.28;4.50;;;;;;;53.47;6.92;98414.77;129676;1096;112666;-81
2021/08/10 16:05:50;;;;;;;8.20;4.43;;;;;;;52.83;7.34;98406.38;129789;1096;113563;-81
2021/08/10 16:12:50;;;;;;;7.08;4.20;;;;;;;51.86;7.51;98405.95;129485;1096;113999;-81
2021/08/10 16:16:19;;;;;;;7.63;4.18;;;;;;;50.59;8.21;98403.31;129792;1096;113883;-82
2021/08/10 16:19:48;;;;;;;6.93;3.70;;;;;;;49.00;9.05;98389.91;129760;1095;114224;-83
2021/08/10 16:23:14;;;;;;;5.18;3.65;;;;;;;47.40;10.38;98385.47;129739;1096;113706;-80
2021/08/10 16:26:39;;;;;;;5.93;3.73;;;;;;;45.91;11.49;98390.31;129765;1096;113871;-80
2021/08/10 16:30:06;;;;;;;4.30;3.45;;;;;;;44.64;12.75;98395.11;129778;1096;113786;-80
2021/08/10 16:33:38;;;;;;;5.43;3.35;;;;;;;43.46;13.14;98379.80;129743;1096;114025;-80
2021/08/10 16:37:05;;;;;;;5.38;3.48;;;;;;;42.65;14.16;98380.44;129479;1096;114124;-79
2021/08/10 16:40:35;;;;;;;4.15;3.10;;;;;;;41.92;14.55;98384.54;129755;1095;113860;-80
2021/08/10 16:44:00;;;;;;;4.53;3.40;;;;;;;41.25;15.84;98379.17;129759;1096;113921;-81
2021/08/10 16:47:27;;;;;;;3.55;2.88;;;;;;;40.37;16.38;98379.55;129779;1095;114351;-80
2021/08/10 16:54:22;;;;;;;5.33;3.68;;;;;;;39.33;17.19;98369.02;129731;1096;114077;-80
2021/08/10 16:57:48;;;;;;;6.18;3.53;;;;;;;38.68;17.38;98375.27;129706;1096;114141;-80
2021/08/10 17:01:16;;;;;;;5.10;3.20;;;;;;;37.99;17.82;98366.73;129744;1096;114073;-80
2021/08/10 17:04:49;;;;;;;4.13;3.10;;;;;;;37.75;18.45;98369.02;129759;1095;114306;-80
2021/08/10 17:08:15;;;;;;;6.38;3.45;;;;;;;37.67;19.38;98368.67;129516;1095;113911;-80
2021/08/10 17:11:42;;;;;;;4.85;2.95;;;;;;;37.35;19.04;98364.95;129686;1096;113882;-78
2021/08/10 17:18:36;;;;;;;5.03;3.30;;;;;;;36.38;20.68;98369.63;129736;1095;113985;-78
2021/08/10 17:21:53;;;;;;;;;;;;;;;;;;;;;
2021/08/10 17:25:21;;;;;;;4.30;3.40;;;;;;;35.41;21.92;98368.30;129642;1096;114032;-79
2021/08/10 17:28:47;;;;;;;5.68;3.18;;;;;;;34.98;22.75;98356.45;129756;1095;113883;-80
2021/08/10 18:00:00;;;;;;;5.60;3.10;;;;;;;31.66;29.74;98362.74;129867;1096;22542;-80
2021/08/10 18:03:27;;;;;;;5.95;3.20;;;;;;;31.31;30.03;98361.20;129500;1095;112540;-79
2021/08/10 18:06:53;;;;;;;6.05;3.05;;;;;;;30.96;30.76;98361.13;129753;1096;114105;-80
2021/08/10 18:10:21;;;;;;;6.35;3.00;;;;;;;30.63;30.86;98369.69;129517;1096;113360;-80
2021/08/10 18:13:48;;;;;;;6.33;3.20;;;;;;;30.30;31.66;98369.09;129781;1096;113874;-80
2021/08/10 18:17:14;;;;;;;5.80;2.90;;;;;;;29.98;31.52;98365.23;129753;1095;113907;-80
2021/08/10 18:20:43;;;;;;;6.20;2.95;;;;;;;29.70;31.73;98364.03;129522;1095;113885;-79
2021/08/10 18:27:39;;;;;;;5.53;3.18;;;;;;;29.21;32.49;98379.97;129765;1095;113978;-80
2021/08/10 18:31:14;;;;;;;;;;;;;;;;;;;;;
2021/08/10 18:38:07;;;;;;;4.55;3.05;;;;;;;28.55;33.57;98382.66;129762;1096;114350;-79
2021/08/10 18:41:24;;;;;;;;;;;;;;;;;;;;;
2021/08/10 18:44:59;;;;;;;6.50;2.98;;;;;;;28.21;33.63;98391.27;129748;1096;114117;-80
2021/08/10 18:48:26;;;;;;;7.23;3.23;;;;;;;28.04;34.76;98390.44;129783;1096;113745;-80
2021/08/10 18:51:53;;;;;;;4.83;2.78;;;;;;;27.88;34.94;98390.37;129748;1096;114078;-80
2021/08/10 18:55:22;;;;;;;7.33;3.33;;;;;;;27.71;35.63;98386.72;129784;1095;113969;-79
2021/08/10 18:58:49;;;;;;;8.28;3.20;;;;;;;27.57;35.65;98381.44;129752;1096;113906;-79
2021/08/10 19:02:16;;;;;;;7.08;3.05;;;;;;;27.42;36.22;98397.50;129686;1096;113871;-79
2021/08/10 19:06:06;;;;;;;5.75;3.03;;;;;;;27.28;36.35;98397.76;129680;1096;113939;-80
2021/08/10 19:09:17;;;;;;;3.98;2.85;;;;;;;27.13;36.81;98392.45;129547;1095;113746;-79
2021/08/10 19:12:45;;;;;;;5.63;3.10;;;;;;;27.01;37.05;98406.06;129747;1096;114060;-80
2021/08/10 19:16:12;;;;;;;5.55;3.20;;;;;;;26.89;37.46;98404.66;129781;1096;114074;-80
2021/08/10 19:19:40;;;;;;;7.10;2.70;;;;;;;26.77;37.87;98399.71;129782;1096;114019;-80
2021/08/10 19:26:35;;;;;;;5.65;3.20;;;;;;;26.53;37.56;98399.65;129731;1096;113919;-80
2021/08/10 19:30:11;;;;;;;8.78;3.38;;;;;;;26.43;37.85;98400.53;129676;1096;113758;-79
2021/08/10 19:33:39;;;;;;;8.58;3.25;;;;;;;26.32;38.42;98397.91;129678;1096;113700;-80
2021/08/10 19:37:06;;;;;;;4.30;2.75;;;;;;;26.22;38.38;98406.34;129761;1096;114058;-79
2021/08/10 19:44:01;;;;;;;4.40;3.20;;;;;;;26.01;39.29;98396.32;129761;1096;113952;-80
2021/08/10 19:47:28;;;;;;;6.28;2.75;;;;;;;25.91;39.34;98392.50;129791;1096;113927;-79
2021/08/10 19:50:54;;;;;;;6.23;3.13;;;;;;;25.84;39.70;98398.09;129803;1097;113752;-79
2021/08/10 19:57:49;;;;;;;8.10;2.80;;;;;;;25.72;39.89;98399.38;129742;1095;114139;-79
2021/08/10 20:01:15;;;;;;;5.38;2.80;;;;;;;25.67;40.12;98403.36;129722;1095;114198;-78
2021/08/10 20:04:43;;;;;;;4.88;2.80;;;;;;;25.61;40.37;98406.97;129774;1096;114129;-78
2021/08/10 20:11:18;;;;;;;;;;;;;;;;;;;;;
2021/08/10 20:14:40;;;;;;;6.23;3.05;;;;;;;25.36;41.81;98410.75;129767;1096;113899;-78
2021/08/10 20:18:00;;;;;;;5.80;2.88;;;;;;;25.26;42.19;98406.09;129771;1096;113719;-78
2021/08/10 20:21:26;;;;;;;6.35;3.20;;;;;;;25.17;41.82;98409.32;129761;1096;113757;-79
2021/08/10 20:24:54;;;;;;;6.08;3.00;;;;;;;25.10;41.85;98408.59;129463;1096;114114;-79
2021/08/10 20:28:23;;;;;;;5.85;3.25;;;;;;;25.04;42.14;98416.48;129772;1096;113905;-78
2021/08/10 20:31:49;;;;;;;8.28;3.15;;;;;;;24.97;42.32;98411.81;129730;1096;113924;-78
2021/08/10 20:38:43;;;;;;;4.08;2.85;;;;;;;24.82;42.65;98402.07;129775;1096;113835;-79
2021/08/10 20:42:10;;;;;;;5.70;2.75;;;;;;;24.75;42.70;98413.13;129724;1095;113760;-78
2021/08/10 20:52:31;;;;;;;6.60;2.90;;;;;;;24.55;43.27;98406.56;129523;1096;113895;-79
2021/08/10 20:55:59;;;;;;;4.73;2.90;;;;;;;24.49;43.31;98411.72;129743;1096;113154;-79
2021/08/10 20:59:25;;;;;;;5.03;3.00;;;;;;;24.44;43.43;98404.67;129757;1096;113898;-78
2021/08/10 21:02:51;;;;;;;5.23;2.60;;;;;;;24.39;43.92;98402.31;129463;1095;113835;-78
2021/08/10 21:06:18;;;;;;;6.28;2.98;;;;;;;24.33;44.07;98414.91;129867;1095;22520;-79
2021/08/10 21:09:46;;;;;;;5.43;2.95;;;;;;;24.27;44.19;98416.50;129730;1096;114120;-79
2021/08/10 21:20:07;;;;;;;6.85;3.53;;;;;;;24.11;45.04;98418.92;129745;1096;114282;-79
2021/08/10 21:30:09;;;;;;;7.53;3.43;;;;;;;23.93;45.10;98417.03;129558;1095;113866;-79
2021/08/10 21:33:36;;;;;;;7.20;3.35;;;;;;;23.88;45.22;98417.41;129754;1096;114712;-78
2021/08/10 21:37:02;;;;;;;7.58;2.90;;;;;;;23.85;45.83;98422.92;129734;1095;114170;-79
2021/08/10 21:40:14;;;;;;;;;;;;;;;;;;;;;